createdAt,value
2022-10-19T00:01:12.475Z,97.62
2022-10-19T00:03:40.157Z,97.27
2022-10-19T00:06:19.856Z,97.50
2022-10-19T00:08:46.844Z,96.98
2022-10-19T00:11:13.973Z,97.00
2022-10-19T00:13:41.055Z,97.22
2022-10-19T00:16:15.393Z,97.52
2022-10-19T00:18:43.788Z,97.33
2022-10-19T00:21:14.851Z,96.91
2022-10-19T00:23:42.210Z,97.36
2022-10-19T00:26:09.991Z,97.66
2022-10-19T00:28:37.223Z,97.71
2022-10-19T00:31:16.384Z,96.80
2022-10-19T00:33:46.689Z,97.44
2022-10-19T00:36:23.990Z,97.45
2022-10-19T00:38:51.200Z,97.45
2022-10-19T00:41:19.882Z,96.99
2022-10-19T00:44:11.413Z,96.95
2022-10-19T00:46:45.486Z,97.38
2022-10-19T00:49:22.556Z,97.17
2022-10-19T00:51:54.589Z,97.45
2022-10-19T00:54:22.515Z,97.50
2022-10-19T00:56:53.489Z,97.34
2022-10-19T00:59:22.480Z,96.79
2022-10-19T01:01:50.772Z,97.90
2022-10-19T01:04:20.007Z,97.67
2022-10-19T01:06:47.119Z,97.09
2022-10-19T01:09:14.421Z,97.75
2022-10-19T01:11:54.563Z,97.11
2022-10-19T01:14:36.443Z,97.62
2022-10-19T01:17:23.776Z,97.21
2022-10-19T01:20:44.551Z,97.75
2022-10-19T01:23:48.798Z,97.74
2022-10-19T01:26:43.247Z,96.88
2022-10-19T01:29:46.900Z,97.09
2022-10-19T01:32:23.532Z,97.19
2022-10-19T01:35:18.153Z,96.77
2022-10-19T01:38:06.394Z,97.28
2022-10-19T01:40:55.921Z,97.37
2022-10-19T01:43:39.315Z,97.00
2022-10-19T01:46:27.560Z,96.88
2022-10-19T01:49:29.520Z,96.73
2022-10-19T01:52:03.439Z,97.67
2022-10-19T01:54:42.323Z,98.02
2022-10-19T01:57:13.209Z,97.51
2022-10-19T01:59:41.372Z,97.06
2022-10-19T02:02:10.881Z,98.12
2022-10-19T02:04:39.596Z,97.55
2022-10-19T02:07:08.890Z,97.73
2022-10-19T02:09:36.399Z,96.97
2022-10-19T02:12:09.527Z,96.74
2022-10-19T02:14:46.095Z,96.35
2022-10-19T02:17:25.495Z,97.80
2022-10-19T02:19:54.372Z,97.67
2022-10-19T02:22:22.452Z,97.16
2022-10-19T02:24:49.453Z,97.06
2022-10-19T02:27:17.649Z,96.78
2022-10-19T02:29:44.595Z,98.01
2022-10-19T02:32:12.204Z,97.14
2022-10-19T02:34:40.316Z,96.95
2022-10-19T02:37:07.575Z,97.31
2022-10-19T02:39:34.583Z,97.21
2022-10-19T02:42:11.927Z,97.24
2022-10-19T02:44:55.974Z,97.89
2022-10-19T02:47:32.480Z,98.16
2022-10-19T02:49:59.767Z,97.23
2022-10-19T02:52:26.655Z,97.90
2022-10-19T02:54:53.543Z,97.67
2022-10-19T02:57:24.561Z,97.23
2022-10-19T02:59:52.713Z,97.09
2022-10-19T03:02:21.294Z,97.24
2022-10-19T03:07:22.904Z,97.77
2022-10-19T03:09:50.229Z,97.47
2022-10-19T03:12:17.975Z,97.33
2022-10-19T03:14:44.872Z,97.92
2022-10-19T03:17:12.136Z,97.29
2022-10-19T03:19:39.161Z,97.38
2022-10-19T03:22:06.422Z,96.64
2022-10-19T03:24:33.624Z,96.52
2022-10-19T03:27:00.491Z,97.32
2022-10-19T03:29:27.481Z,97.64
2022-10-19T03:31:54.356Z,97.51
2022-10-19T03:34:21.470Z,97.78
2022-10-19T03:36:48.445Z,97.73
2022-10-19T03:39:16.952Z,97.38
2022-10-19T03:41:44.603Z,97.19
2022-10-19T03:44:11.854Z,97.48
2022-10-19T03:46:39.575Z,97.58
2022-10-19T03:49:06.751Z,97.05
2022-10-19T03:51:34.830Z,97.54
2022-10-19T03:54:11.558Z,97.44
2022-10-19T03:56:38.636Z,97.93
2022-10-19T03:59:07.148Z,97.45
2022-10-19T04:01:38.775Z,97.14
2022-10-19T04:04:13.061Z,97.52
2022-10-19T04:06:42.974Z,97.41
2022-10-19T04:09:14.314Z,97.39
2022-10-19T04:11:41.988Z,97.74
2022-10-19T04:14:19.324Z,98.11
2022-10-19T04:16:54.265Z,97.89
2022-10-19T04:19:21.176Z,98.10
2022-10-19T04:21:49.536Z,97.42
2022-10-19T04:24:19.342Z,97.26
2022-10-19T04:26:52.407Z,97.85
2022-10-19T04:29:26.237Z,97.71
2022-10-19T04:31:56.613Z,97.77
2022-10-19T04:34:24.091Z,97.23
2022-10-19T04:36:50.975Z,97.94
2022-10-19T04:39:18.064Z,97.94
2022-10-19T04:41:44.965Z,98.31
2022-10-19T04:44:11.871Z,98.16
2022-10-19T04:46:38.865Z,98.04
2022-10-19T04:49:06.760Z,98.18
2022-10-19T04:51:34.538Z,97.37
2022-10-19T04:54:03.345Z,97.24
2022-10-19T04:56:32.182Z,97.21
2022-10-19T04:59:00.926Z,96.97
2022-10-19T05:01:30.461Z,98.31
2022-10-19T05:04:00.910Z,98.05
2022-10-19T05:06:28.984Z,97.65
2022-10-19T05:08:56.177Z,98.05
2022-10-19T05:11:23.530Z,98.02
2022-10-19T05:13:50.858Z,96.80
2022-10-19T05:16:20.452Z,97.50
2022-10-19T05:18:59.547Z,98.28
2022-10-19T05:21:28.828Z,97.71
2022-10-19T05:23:57.213Z,97.85
2022-10-19T05:26:26.982Z,98.12
2022-10-19T05:29:01.643Z,98.26
2022-10-19T05:31:31.852Z,97.87
2022-10-19T05:33:59.945Z,97.62
2022-10-19T05:36:34.270Z,98.16
2022-10-19T05:39:13.763Z,98.17
2022-10-19T05:41:42.867Z,98.20
2022-10-19T05:44:16.131Z,97.69
2022-10-19T05:46:44.899Z,97.96
2022-10-19T05:49:13.503Z,97.85
2022-10-19T05:51:41.024Z,98.09
2022-10-19T05:54:08.282Z,97.95
2022-10-19T05:56:35.398Z,98.15
2022-10-19T05:59:06.825Z,98.13
2022-10-19T06:01:35.092Z,97.98
2022-10-19T06:04:03.287Z,97.22
2022-10-19T06:06:31.797Z,97.87
2022-10-19T06:08:59.051Z,98.44
2022-10-19T06:11:30.146Z,98.33
2022-10-19T06:13:59.185Z,98.26
2022-10-19T06:16:27.821Z,97.93
2022-10-19T06:18:55.683Z,98.02
2022-10-19T06:21:25.563Z,97.54
2022-10-19T06:23:58.441Z,97.73
2022-10-19T06:26:26.665Z,98.17
2022-10-19T06:29:00.495Z,97.91
2022-10-19T06:31:32.841Z,98.36
2022-10-19T06:33:59.987Z,98.19
2022-10-19T06:36:30.907Z,97.72
2022-10-19T06:38:59.650Z,98.17
2022-10-19T06:41:26.827Z,98.09
2022-10-19T06:43:55.680Z,97.97
2022-10-19T06:46:25.798Z,98.77
2022-10-19T06:48:59.626Z,98.16
2022-10-19T06:51:28.748Z,98.68
2022-10-19T06:53:57.152Z,98.19
2022-10-19T06:56:25.593Z,98.61
2022-10-19T06:58:52.892Z,98.49
2022-10-19T07:01:20.303Z,98.69
2022-10-19T07:03:47.242Z,98.63
2022-10-19T07:06:14.812Z,98.11
2022-10-19T07:08:43.978Z,98.41
2022-10-19T07:11:16.048Z,98.34
2022-10-19T07:13:42.973Z,98.56
2022-10-19T07:16:20.810Z,98.66
2022-10-19T07:18:51.012Z,98.86
2022-10-19T07:21:19.610Z,98.61
2022-10-19T07:23:47.494Z,98.66
2022-10-19T07:26:23.777Z,98.38
2022-10-19T07:28:51.885Z,99.04
2022-10-19T07:31:22.026Z,98.21
2022-10-19T07:33:53.970Z,98.58
2022-10-19T07:36:21.283Z,98.33
2022-10-19T07:38:48.227Z,98.24
2022-10-19T07:41:18.309Z,98.74
2022-10-19T07:43:47.005Z,98.33
2022-10-19T07:46:17.935Z,98.83
2022-10-19T07:48:45.605Z,99.13
2022-10-19T07:51:15.654Z,98.99
2022-10-19T07:53:43.281Z,99.35
2022-10-19T07:56:22.691Z,98.77
2022-10-19T07:58:55.766Z,98.93
2022-10-19T08:01:40.879Z,99.01
2022-10-19T08:06:54.961Z,98.96
2022-10-19T08:09:51.622Z,98.98
2022-10-19T08:12:14.628Z,99.44
2022-10-19T08:14:42.240Z,98.79
2022-10-19T08:17:11.854Z,99.01
2022-10-19T08:19:43.093Z,99.02
2022-10-19T08:22:11.471Z,98.81
2022-10-19T08:24:38.475Z,99.13
2022-10-19T08:27:05.487Z,99.31
2022-10-19T08:29:32.613Z,99.37
2022-10-19T08:32:00.025Z,99.38
2022-10-19T08:34:27.092Z,98.90
2022-10-19T08:36:54.250Z,99.16
2022-10-19T08:39:21.136Z,99.18
2022-10-19T08:42:15.116Z,98.68
2022-10-19T08:45:19.504Z,98.42
2022-10-19T08:47:59.318Z,99.50
2022-10-19T08:50:35.202Z,99.10
2022-10-19T08:53:16.786Z,98.81
2022-10-19T08:56:45.651Z,98.21
2022-10-19T08:59:23.512Z,97.53
2022-10-19T09:02:08.439Z,98.40
2022-10-19T09:04:47.140Z,97.74
2022-10-19T09:07:27.369Z,97.76
2022-10-19T09:10:29.352Z,97.80
2022-10-19T09:13:01.887Z,98.51
2022-10-19T09:16:01.760Z,98.27
2022-10-19T09:18:36.112Z,97.80
2022-10-19T09:21:30.959Z,97.62
2022-10-19T09:24:12.438Z,97.32
2022-10-19T09:26:52.724Z,97.39
2022-10-19T09:29:36.732Z,96.66
2022-10-19T09:32:11.185Z,97.22
2022-10-19T09:34:50.056Z,96.86
2022-10-19T09:37:25.695Z,96.87
2022-10-19T09:39:55.635Z,97.25
2022-10-19T09:42:33.108Z,96.34
2022-10-19T09:45:11.883Z,93.73
2022-10-19T09:47:41.648Z,94.32
2022-10-19T09:50:19.231Z,95.95
2022-10-19T09:52:49.472Z,93.78
2022-10-19T09:58:20.892Z,93.25
2022-10-19T10:00:51.242Z,92.97
2022-10-19T10:03:36.042Z,91.30
2022-10-19T10:06:13.932Z,89.38
2022-10-19T10:08:52.630Z,92.05
2022-10-19T10:11:31.984Z,89.38
2022-10-19T10:14:17.219Z,89.86
2022-10-19T10:16:44.107Z,89.73
2022-10-19T10:19:18.805Z,91.56
2022-10-19T10:21:50.966Z,88.64
2022-10-19T10:24:23.751Z,90.45
2022-10-19T10:27:11.529Z,87.96
2022-10-19T10:29:39.253Z,88.89
2022-10-19T10:32:18.358Z,86.55
2022-10-19T10:35:01.354Z,85.83
2022-10-19T10:37:47.056Z,86.44
2022-10-19T10:40:31.337Z,85.31
2022-10-19T10:43:08.726Z,89.41
2022-10-19T10:45:46.682Z,88.46
2022-10-19T10:48:34.078Z,89.12
2022-10-19T10:51:02.074Z,86.43
2022-10-19T10:53:38.927Z,87.54
2022-10-19T10:56:24.252Z,88.71
2022-10-19T10:59:22.124Z,88.04
2022-10-19T11:02:22.912Z,88.96
2022-10-19T11:04:56.740Z,88.66
2022-10-19T11:07:26.831Z,83.82
2022-10-19T11:10:02.614Z,85.49
2022-10-19T11:12:40.883Z,83.99
2022-10-19T11:15:33.580Z,87.09
2022-10-19T11:18:15.663Z,87.01
2022-10-19T11:20:57.358Z,85.58
2022-10-19T11:23:48.179Z,84.76
2022-10-19T11:26:56.936Z,84.27
2022-10-19T11:29:42.656Z,86.29
2022-10-19T11:32:30.086Z,82.63
2022-10-19T11:35:32.946Z,81.83
2022-10-19T11:38:20.051Z,84.79
2022-10-19T11:41:21.889Z,88.30
2022-10-19T11:44:17.942Z,84.55
2022-10-19T11:46:54.948Z,84.52
2022-10-19T11:53:00.050Z,85.14
2022-10-19T11:56:02.801Z,82.14
2022-10-19T11:58:57.048Z,85.07
2022-10-19T12:01:51.224Z,81.10
2022-10-19T12:04:44.914Z,83.67
2022-10-19T12:07:59.820Z,82.14
2022-10-19T12:10:47.393Z,81.77
2022-10-19T12:13:21.255Z,82.88
2022-10-19T12:15:53.927Z,82.51
2022-10-19T12:18:48.963Z,84.00
2022-10-19T12:21:31.593Z,81.68
2022-10-19T12:24:02.324Z,86.05
2022-10-19T12:26:34.499Z,85.09
2022-10-19T12:29:07.423Z,83.74
2022-10-19T12:31:36.458Z,87.78
2022-10-19T12:34:49.776Z,83.78
2022-10-19T12:37:36.129Z,84.19
2022-10-19T12:40:24.261Z,85.32
2022-10-19T12:43:17.169Z,81.54
2022-10-19T12:46:37.694Z,81.05
2022-10-19T12:49:30.768Z,84.85
2022-10-19T12:52:00.707Z,84.08
2022-10-19T12:54:34.080Z,87.03
2022-10-19T12:57:04.145Z,80.20
2022-10-19T12:59:34.747Z,80.33
2022-10-19T13:02:06.187Z,82.10
2022-10-19T13:04:36.204Z,79.06
2022-10-19T13:07:08.088Z,80.42
2022-10-19T13:09:42.404Z,80.67
2022-10-19T13:12:21.852Z,81.21
2022-10-19T13:15:01.580Z,81.62
2022-10-19T13:17:48.390Z,82.01
2022-10-19T13:20:15.326Z,78.32
2022-10-19T13:22:45.295Z,78.78
2022-10-19T13:25:33.360Z,80.68
2022-10-19T13:28:06.269Z,79.74
2022-10-19T13:30:38.641Z,81.88
2022-10-19T13:33:29.714Z,81.54
2022-10-19T13:35:59.320Z,79.31
2022-10-19T13:38:37.242Z,81.44
2022-10-19T13:41:19.261Z,80.13
2022-10-19T13:44:02.347Z,80.58
2022-10-19T13:46:29.166Z,83.62
2022-10-19T13:49:02.385Z,81.81
2022-10-19T13:52:02.380Z,81.44
2022-10-19T13:54:41.772Z,82.53
2022-10-19T13:58:00.611Z,81.98
2022-10-19T14:01:10.287Z,80.79
2022-10-19T14:04:12.388Z,82.33
2022-10-19T14:06:53.388Z,79.87
2022-10-19T14:09:41.907Z,83.27
2022-10-19T14:12:27.795Z,83.47
2022-10-19T14:14:54.954Z,83.31
2022-10-19T14:17:30.000Z,81.89
2022-10-19T14:19:59.812Z,79.66
2022-10-19T14:22:44.630Z,85.23
2022-10-19T14:25:18.579Z,82.38
2022-10-19T14:27:57.988Z,85.98
2022-10-19T14:30:34.294Z,84.82
2022-10-19T14:33:09.790Z,86.93
2022-10-19T14:35:40.580Z,85.76
2022-10-19T14:38:09.323Z,85.32
2022-10-19T14:40:41.972Z,84.02
2022-10-19T14:43:27.231Z,86.00
2022-10-19T14:46:30.889Z,84.82
2022-10-19T14:49:04.892Z,82.69
2022-10-19T14:51:45.232Z,81.73
2022-10-19T14:54:28.984Z,81.48
2022-10-19T14:57:01.704Z,81.69
2022-10-19T14:59:37.693Z,81.05
2022-10-19T15:02:20.572Z,82.73
2022-10-19T15:04:48.135Z,83.56
2022-10-19T15:07:25.135Z,83.10
2022-10-19T15:10:00.484Z,85.97
2022-10-19T15:12:40.312Z,85.70
2022-10-19T15:15:22.946Z,86.90
2022-10-19T15:18:43.472Z,86.75
2022-10-19T15:21:20.660Z,86.63
2022-10-19T15:23:51.642Z,84.92
2022-10-19T15:26:27.157Z,86.59
2022-10-19T15:29:06.989Z,84.87
2022-10-19T15:31:34.013Z,84.86
2022-10-19T15:34:03.224Z,84.42
2022-10-19T15:36:32.623Z,83.02
2022-10-19T15:39:17.962Z,84.23
2022-10-19T15:41:51.783Z,80.27
2022-10-19T15:44:43.366Z,84.69
2022-10-19T15:47:16.349Z,85.10
2022-10-19T15:49:43.265Z,84.47
2022-10-19T15:52:22.598Z,87.76
2022-10-19T15:54:57.797Z,88.22
2022-10-19T15:57:35.133Z,87.04
2022-10-19T16:00:15.821Z,83.85
2022-10-19T16:02:42.908Z,87.59
2022-10-19T16:05:11.272Z,85.96
2022-10-19T16:07:40.772Z,85.42
2022-10-19T16:10:16.727Z,86.45
2022-10-19T16:12:44.014Z,87.72
2022-10-19T16:15:17.369Z,84.83
2022-10-19T16:17:48.552Z,87.93
2022-10-19T16:20:16.283Z,85.07
2022-10-19T16:22:44.829Z,87.62
2022-10-19T16:25:12.884Z,88.49
2022-10-19T16:27:39.998Z,86.01
2022-10-19T16:30:08.388Z,89.14
2022-10-19T16:32:35.696Z,89.04
2022-10-19T16:35:02.592Z,87.52
2022-10-19T16:37:29.469Z,90.21
2022-10-19T16:39:56.323Z,89.01
2022-10-19T16:42:25.648Z,91.01
2022-10-19T16:44:55.237Z,90.96
2022-10-19T16:47:22.137Z,91.50
2022-10-19T16:49:52.140Z,89.52
2022-10-19T16:52:19.008Z,88.24
2022-10-19T16:54:45.881Z,90.94
2022-10-19T16:57:12.772Z,90.26
2022-10-19T16:59:39.893Z,89.78
2022-10-19T17:02:06.957Z,88.92
2022-10-19T17:04:33.929Z,87.95
2022-10-19T17:07:00.825Z,88.29
2022-10-19T17:09:41.406Z,87.67
2022-10-19T17:12:10.207Z,90.44
2022-10-19T17:14:41.527Z,88.29
2022-10-19T17:17:10.327Z,89.09
2022-10-19T17:19:37.821Z,88.67
2022-10-19T17:22:05.392Z,87.92
2022-10-19T17:24:32.309Z,86.60
2022-10-19T17:27:03.182Z,89.77
2022-10-19T17:29:30.344Z,86.78
2022-10-19T17:31:58.391Z,89.69
2022-10-19T17:34:25.515Z,90.72
2022-10-19T17:36:52.503Z,89.63
2022-10-19T17:39:25.776Z,88.74
2022-10-19T17:42:01.074Z,90.46
2022-10-19T17:44:29.879Z,90.75
2022-10-19T17:46:56.797Z,88.99
2022-10-19T17:49:23.682Z,88.50
2022-10-19T17:51:53.559Z,90.25
2022-10-19T17:54:20.591Z,88.68
2022-10-19T17:56:47.578Z,88.06
2022-10-19T17:59:14.862Z,90.11
2022-10-19T18:01:42.167Z,90.58
2022-10-19T18:04:09.061Z,89.82
2022-10-19T18:06:38.363Z,87.49
2022-10-19T18:09:08.786Z,88.13
2022-10-19T18:11:40.654Z,87.53
2022-10-19T18:14:09.562Z,88.73
2022-10-19T18:16:42.483Z,88.92
2022-10-19T18:19:11.603Z,89.18
2022-10-19T18:21:42.072Z,88.38
2022-10-19T18:24:16.360Z,90.98
2022-10-19T18:26:44.082Z,89.92
2022-10-19T18:29:16.643Z,89.61
2022-10-19T18:31:48.963Z,90.77
2022-10-19T18:34:17.095Z,91.33
2022-10-19T18:36:44.484Z,89.10
2022-10-19T18:39:13.842Z,91.23
2022-10-19T18:41:41.085Z,90.27
2022-10-19T18:44:11.535Z,88.63
2022-10-19T18:46:38.717Z,89.34
2022-10-19T18:49:08.381Z,89.70
2022-10-19T18:51:36.011Z,90.11
2022-10-19T18:54:03.131Z,90.75
2022-10-19T18:56:30.153Z,90.90
2022-10-19T18:58:57.404Z,88.00
2022-10-19T19:01:27.229Z,89.55
2022-10-19T19:03:57.169Z,90.25
2022-10-19T19:06:29.741Z,88.97
2022-10-19T19:08:59.383Z,90.01
2022-10-19T19:11:34.448Z,87.59
2022-10-19T19:14:13.384Z,88.70
2022-10-19T19:16:41.990Z,89.16
2022-10-19T19:19:10.890Z,90.69
2022-10-19T19:21:38.226Z,90.87
2022-10-19T19:24:07.086Z,90.09
2022-10-19T19:26:38.947Z,90.03
2022-10-19T19:29:05.884Z,88.54
2022-10-19T19:31:33.052Z,89.33
2022-10-19T19:34:01.638Z,90.28
2022-10-19T19:36:29.665Z,90.22
2022-10-19T19:38:58.949Z,90.43
2022-10-19T19:41:26.117Z,89.41
2022-10-19T19:43:52.997Z,88.36
2022-10-19T19:46:20.215Z,90.51
2022-10-19T19:48:48.704Z,89.27
2022-10-19T19:51:19.760Z,89.34
2022-10-19T19:53:48.410Z,88.12
2022-10-19T19:56:17.147Z,90.51
2022-10-19T19:58:45.475Z,90.92
2022-10-19T20:01:14.715Z,91.08
2022-10-19T20:03:42.574Z,90.64
2022-10-19T20:06:10.368Z,89.72
2022-10-19T20:08:37.395Z,91.27
2022-10-19T20:11:10.798Z,90.39
2022-10-19T20:13:39.043Z,90.18
2022-10-19T20:16:17.783Z,90.84
2022-10-19T20:18:48.105Z,89.56
2022-10-19T20:21:15.652Z,90.29
2022-10-19T20:23:46.901Z,90.63
2022-10-19T20:26:17.908Z,89.16
2022-10-19T20:28:45.611Z,91.33
2022-10-19T20:31:13.449Z,90.71
2022-10-19T20:33:41.985Z,92.36
2022-10-19T20:36:21.878Z,90.00
2022-10-19T20:38:57.453Z,90.98
2022-10-19T20:41:26.763Z,90.60
2022-10-19T20:43:55.491Z,90.48
2022-10-19T20:46:26.856Z,91.30
2022-10-19T20:48:56.275Z,90.67
2022-10-19T20:51:30.845Z,89.67
2022-10-19T20:54:01.693Z,89.83
2022-10-19T20:56:32.142Z,90.29
2022-10-19T20:59:08.440Z,91.09
2022-10-19T21:01:38.474Z,90.56
2022-10-19T21:04:08.937Z,90.43
2022-10-19T21:06:41.536Z,91.25
2022-10-19T21:09:10.850Z,90.87
2022-10-19T21:11:40.844Z,91.27
2022-10-19T21:14:16.439Z,91.49
2022-10-19T21:16:43.793Z,90.74
2022-10-19T21:19:14.681Z,90.42
2022-10-19T21:21:46.115Z,90.73
2022-10-19T21:24:20.526Z,91.87
2022-10-19T21:26:48.648Z,92.02
2022-10-19T21:29:16.678Z,91.08
2022-10-19T21:31:48.869Z,91.13
2022-10-19T21:34:24.861Z,92.56
2022-10-19T21:36:52.185Z,91.01
2022-10-19T21:39:19.875Z,93.53
2022-10-19T21:41:47.187Z,91.55
2022-10-19T21:44:16.472Z,92.63
2022-10-19T21:46:43.823Z,93.79
2022-10-19T21:49:12.515Z,93.03
2022-10-19T21:51:52.020Z,93.30
2022-10-19T21:54:24.617Z,93.42
2022-10-19T21:56:52.991Z,93.90
2022-10-19T21:59:19.895Z,92.81
2022-10-19T22:01:46.910Z,92.48
2022-10-19T22:04:17.808Z,93.08
2022-10-19T22:06:45.319Z,92.42
2022-10-19T22:09:17.017Z,91.65
2022-10-19T22:11:44.834Z,92.35
2022-10-19T22:14:14.986Z,93.30
2022-10-19T22:16:42.733Z,93.17
2022-10-19T22:19:10.294Z,92.64
2022-10-19T22:24:14.532Z,93.88
2022-10-19T22:26:50.459Z,93.65
2022-10-19T22:29:17.510Z,94.05
2022-10-19T22:31:44.493Z,92.30
2022-10-19T22:34:17.863Z,94.18
2022-10-19T22:36:45.644Z,93.20
2022-10-19T22:39:12.927Z,92.94
2022-10-19T22:42:04.809Z,92.49
2022-10-19T22:44:32.420Z,93.86
2022-10-19T22:46:59.787Z,93.46
2022-10-19T22:49:26.691Z,93.12
2022-10-19T22:51:53.610Z,93.01
2022-10-19T22:54:20.525Z,93.99
2022-10-19T22:56:47.429Z,93.18
2022-10-19T22:59:14.317Z,93.53
2022-10-19T23:01:41.288Z,93.01
2022-10-19T23:04:08.334Z,92.53
2022-10-19T23:06:35.247Z,93.78
2022-10-19T23:09:02.285Z,93.88
2022-10-19T23:11:29.255Z,93.92
2022-10-19T23:13:56.182Z,91.85
2022-10-19T23:16:23.120Z,93.02
2022-10-19T23:18:50.192Z,93.82
2022-10-19T23:21:17.125Z,93.94
2022-10-19T23:23:44.404Z,93.14
2022-10-19T23:26:15.512Z,94.64
2022-10-19T23:28:44.792Z,93.36
2022-10-19T23:31:19.015Z,93.71
2022-10-19T23:33:46.560Z,94.13
2022-10-19T23:36:17.718Z,94.15
2022-10-19T23:38:46.423Z,94.05
2022-10-19T23:41:13.915Z,94.31
2022-10-19T23:43:41.258Z,94.18
2022-10-19T23:46:08.548Z,93.84
2022-10-19T23:48:36.521Z,94.07
2022-10-19T23:51:13.399Z,94.29
2022-10-19T23:53:43.485Z,94.17
2022-10-19T23:56:18.265Z,93.25
2022-10-19T23:58:45.647Z,93.37
